Terminal Aerodrome Forecast
Issued by NWS

Home | Current Version | Previous Version | Text Only | Print | Product List | Glossary On
Versions: 1 2 3 4 5 6 7 8 9 10 11 12 13 14 15 16 17 18 19 20 21 22 23 24 25 26
000
FTUS41 KPHI 261100
TAFMIV
TAF
KMIV 261120Z 2612/2712 06011KT 6SM -RA OVC040
      TEMPO 2613/2616 4SM -RA BKN015 OVC040
     FM261600 03012KT 2SM RA OVC007
     FM262000 36013G23KT 3SM -RASN OVC009
     FM270200 32011KT 5SM BR BKN040=

USA.gov is the U.S. government's official web portal to all federal, state and local government web resources and services.